createdAt,value
2018-07-27T00:00:36.185Z,26.94
2018-07-27T00:03:02.201Z,26.97
2018-07-27T00:05:28.166Z,27.01
2018-07-27T00:07:54.142Z,26.95
2018-07-27T00:10:20.115Z,26.99
2018-07-27T00:12:46.083Z,26.99
2018-07-27T00:15:12.030Z,27.03
2018-07-27T00:17:38.009Z,26.98
2018-07-27T00:20:03.992Z,27.01
2018-07-27T00:22:29.963Z,27.00
2018-07-27T00:24:55.920Z,27.07
2018-07-27T00:27:21.907Z,27.04
2018-07-27T00:29:47.872Z,27.02
2018-07-27T00:32:13.853Z,26.99
2018-07-27T00:34:39.815Z,26.94
2018-07-27T00:37:05.776Z,26.96
2018-07-27T00:39:31.746Z,26.93
2018-07-27T00:41:57.702Z,26.93
2018-07-27T00:44:23.673Z,26.93
2018-07-27T00:46:49.656Z,26.95
2018-07-27T00:49:15.621Z,26.96
2018-07-27T00:51:41.594Z,27.09
2018-07-27T00:54:07.580Z,26.95
2018-07-27T00:56:33.533Z,26.96
2018-07-27T00:58:59.506Z,26.94
2018-07-27T01:01:25.542Z,26.94
2018-07-27T01:03:51.503Z,26.94
2018-07-27T01:06:18.248Z,26.90
2018-07-27T01:08:44.215Z,26.95
2018-07-27T01:11:10.204Z,26.95
2018-07-27T01:13:36.156Z,26.93
2018-07-27T01:16:02.177Z,26.89
2018-07-27T01:18:28.125Z,26.86
2018-07-27T01:20:54.100Z,26.86
2018-07-27T01:23:20.069Z,26.89
2018-07-27T01:25:46.042Z,26.87
2018-07-27T01:28:12.023Z,26.89
2018-07-27T01:30:38.048Z,26.89
2018-07-27T01:33:04.014Z,26.86
2018-07-27T01:35:29.980Z,26.84
2018-07-27T01:37:55.927Z,26.83
2018-07-27T01:40:21.913Z,26.85
2018-07-27T01:42:47.899Z,26.89
2018-07-27T01:45:13.893Z,26.87
2018-07-27T01:47:39.856Z,26.89
2018-07-27T01:50:05.849Z,26.85
2018-07-27T01:52:31.806Z,26.86
2018-07-27T01:54:57.781Z,26.79
2018-07-27T01:57:23.751Z,26.84
2018-07-27T01:59:49.732Z,26.84
2018-07-27T02:02:15.697Z,26.84
2018-07-27T02:04:44.153Z,26.84
2018-07-27T02:07:10.182Z,26.79
2018-07-27T02:09:36.140Z,26.79
2018-07-27T02:12:02.117Z,26.81
2018-07-27T02:14:28.072Z,26.79
2018-07-27T02:16:54.021Z,26.78
2018-07-27T02:19:20.075Z,26.78
2018-07-27T02:21:46.008Z,26.78
2018-07-27T02:24:11.989Z,26.78
2018-07-27T02:26:37.952Z,26.76
2018-07-27T02:29:03.912Z,26.76
2018-07-27T02:31:29.905Z,26.82
2018-07-27T02:33:55.898Z,26.78
2018-07-27T02:36:21.932Z,26.76
2018-07-27T02:38:47.880Z,26.78
2018-07-27T02:41:13.856Z,26.77
2018-07-27T02:43:39.814Z,26.78
2018-07-27T02:46:05.793Z,26.81
2018-07-27T02:48:31.772Z,26.77
2018-07-27T02:50:57.741Z,26.82
2018-07-27T02:53:23.712Z,26.79
2018-07-27T02:55:49.679Z,26.81
2018-07-27T02:58:15.684Z,26.78
2018-07-27T03:00:41.635Z,26.76
2018-07-27T03:03:07.622Z,26.77
2018-07-27T03:05:33.614Z,26.75
2018-07-27T03:07:59.560Z,26.73
2018-07-27T03:10:25.530Z,26.75
2018-07-27T03:12:51.499Z,26.73
2018-07-27T03:15:17.480Z,26.80
2018-07-27T03:17:43.552Z,26.73
2018-07-27T03:20:09.506Z,26.71
2018-07-27T03:22:35.469Z,26.74
2018-07-27T03:25:01.505Z,26.73
2018-07-27T03:27:27.477Z,26.76
2018-07-27T03:29:53.423Z,26.73
2018-07-27T03:32:19.399Z,26.73
2018-07-27T03:34:45.358Z,26.73
2018-07-27T03:37:11.335Z,26.74
2018-07-27T03:39:37.287Z,26.73
2018-07-27T03:42:03.270Z,26.76
2018-07-27T03:44:29.219Z,26.72
2018-07-27T03:46:55.189Z,26.72
2018-07-27T03:49:21.149Z,26.69
2018-07-27T03:51:47.116Z,26.75
2018-07-27T03:54:13.086Z,26.71
2018-07-27T03:56:39.068Z,26.75
2018-07-27T03:59:05.017Z,26.78
2018-07-27T04:01:30.963Z,26.69
2018-07-27T04:03:57.504Z,26.66
2018-07-27T04:06:23.475Z,26.70
2018-07-27T04:08:49.460Z,26.72
2018-07-27T04:11:15.412Z,26.70
2018-07-27T04:13:41.393Z,26.69
2018-07-27T04:16:07.350Z,26.72
2018-07-27T04:18:33.326Z,26.70
2018-07-27T04:20:59.292Z,26.69
2018-07-27T04:23:25.263Z,26.70
2018-07-27T04:25:51.212Z,26.66
2018-07-27T04:28:17.341Z,26.67
2018-07-27T04:30:43.299Z,26.70
2018-07-27T04:33:09.280Z,26.68
2018-07-27T04:35:35.266Z,26.71
2018-07-27T04:38:01.227Z,26.70
2018-07-27T04:40:27.173Z,26.71
2018-07-27T04:42:53.156Z,26.68
2018-07-27T04:45:19.097Z,26.68
2018-07-27T04:47:45.051Z,26.72
2018-07-27T04:50:11.083Z,26.72
2018-07-27T04:52:37.040Z,26.73
2018-07-27T04:55:03.019Z,26.69
2018-07-27T04:57:29.052Z,26.69
2018-07-27T04:59:55.005Z,26.69
2018-07-27T05:02:20.984Z,26.67
2018-07-27T05:04:46.989Z,26.71
2018-07-27T05:07:12.897Z,26.72
2018-07-27T05:09:38.852Z,26.71
2018-07-27T05:12:04.817Z,26.72
2018-07-27T05:14:30.816Z,26.70
2018-07-27T05:16:56.785Z,26.71
2018-07-27T05:19:22.764Z,26.71
2018-07-27T05:21:48.966Z,26.72
2018-07-27T05:24:14.980Z,26.74
2018-07-27T05:26:40.972Z,26.70
2018-07-27T05:29:06.954Z,26.71
2018-07-27T05:31:32.935Z,26.71
2018-07-27T05:33:58.922Z,26.71
2018-07-27T05:36:24.905Z,26.72
2018-07-27T05:38:50.922Z,26.75
2018-07-27T05:41:16.904Z,26.75
2018-07-27T05:43:42.861Z,26.76
2018-07-27T05:46:08.852Z,26.79
2018-07-27T05:48:34.859Z,26.76
2018-07-27T05:51:00.783Z,26.89
2018-07-27T05:53:26.759Z,26.71
2018-07-27T05:55:52.775Z,26.70
2018-07-27T05:58:18.761Z,26.66
2018-07-27T06:00:44.832Z,26.72
2018-07-27T06:03:10.845Z,26.83
2018-07-27T06:05:36.804Z,26.88
2018-07-27T06:08:02.759Z,26.81
2018-07-27T06:10:28.751Z,26.94
2018-07-27T06:12:54.737Z,26.96
2018-07-27T06:15:20.719Z,26.75
2018-07-27T06:17:46.681Z,26.79
2018-07-27T06:20:12.647Z,26.90
2018-07-27T06:22:38.621Z,26.93
2018-07-27T06:25:04.540Z,26.87
2018-07-27T06:27:30.516Z,26.92
2018-07-27T06:29:56.506Z,27.09
2018-07-27T06:32:22.470Z,27.12
2018-07-27T06:34:48.414Z,27.09
2018-07-27T06:37:14.395Z,27.06
2018-07-27T06:39:40.383Z,27.12
2018-07-27T06:42:06.344Z,27.08
2018-07-27T06:44:32.293Z,27.20
2018-07-27T06:46:58.263Z,27.16
2018-07-27T06:49:24.214Z,27.13
2018-07-27T06:51:50.168Z,27.09
2018-07-27T06:54:16.126Z,27.13
2018-07-27T06:56:42.116Z,27.16
2018-07-27T06:59:08.101Z,27.15
2018-07-27T07:01:34.071Z,27.08
2018-07-27T07:04:00.070Z,27.11
2018-07-27T07:06:26.018Z,27.11
2018-07-27T07:08:51.993Z,27.11
2018-07-27T07:11:17.938Z,27.13
2018-07-27T07:13:43.950Z,27.11
2018-07-27T07:16:09.907Z,27.15
2018-07-27T07:18:35.867Z,27.22
2018-07-27T07:21:01.825Z,27.24
2018-07-27T07:23:27.786Z,27.14
2018-07-27T07:25:53.996Z,27.12
2018-07-27T07:28:19.798Z,27.45
2018-07-27T07:30:45.786Z,27.45
2018-07-27T07:33:11.761Z,27.29
2018-07-27T07:35:37.783Z,27.33
2018-07-27T07:38:03.816Z,27.22
2018-07-27T07:40:29.856Z,27.31
2018-07-27T07:42:55.876Z,27.38
2018-07-27T07:45:21.852Z,27.23
2018-07-27T07:47:47.815Z,27.48
2018-07-27T07:50:13.763Z,27.41
2018-07-27T07:52:39.744Z,27.36
2018-07-27T07:55:05.710Z,27.25
2018-07-27T07:57:31.669Z,27.27
2018-07-27T07:59:57.616Z,27.35
2018-07-27T08:02:23.615Z,27.48
2018-07-27T08:04:49.555Z,27.36
2018-07-27T08:07:15.510Z,27.57
2018-07-27T08:09:41.458Z,27.32
2018-07-27T08:12:07.401Z,27.46
2018-07-27T08:14:33.352Z,27.31
2018-07-27T08:16:59.312Z,27.52
2018-07-27T08:19:25.290Z,27.27
2018-07-27T08:21:51.248Z,27.35
2018-07-27T08:24:17.217Z,27.42
2018-07-27T08:26:43.381Z,27.30
2018-07-27T08:29:09.369Z,27.38
2018-07-27T08:31:35.334Z,27.35
2018-07-27T08:34:01.304Z,27.32
2018-07-27T08:36:27.307Z,27.38
2018-07-27T08:38:53.350Z,27.51
2018-07-27T08:41:19.274Z,27.30
2018-07-27T08:43:45.240Z,27.33
2018-07-27T08:46:11.206Z,27.29
2018-07-27T08:48:37.147Z,27.38
2018-07-27T08:51:03.104Z,27.34
2018-07-27T08:53:29.063Z,27.33
2018-07-27T08:55:55.031Z,27.36
2018-07-27T08:58:21.124Z,27.28
2018-07-27T09:00:47.083Z,27.23
2018-07-27T09:03:13.053Z,27.16
2018-07-27T09:05:39.072Z,27.22
2018-07-27T09:08:05.025Z,27.16
2018-07-27T09:10:30.971Z,27.21
2018-07-27T09:12:56.899Z,27.16
2018-07-27T09:15:22.885Z,27.16
2018-07-27T09:17:48.832Z,27.22
2018-07-27T09:20:14.783Z,27.21
2018-07-27T09:22:40.737Z,27.29
2018-07-27T09:25:06.917Z,27.29
2018-07-27T09:27:32.671Z,27.32
2018-07-27T09:29:58.639Z,27.35
2018-07-27T09:32:24.595Z,27.27
2018-07-27T09:34:50.565Z,27.26
2018-07-27T09:37:16.554Z,27.32
2018-07-27T09:39:42.513Z,27.27
2018-07-27T09:42:08.493Z,27.40
2018-07-27T09:44:34.431Z,27.33
2018-07-27T09:47:00.383Z,27.26
2018-07-27T09:49:26.343Z,27.22
2018-07-27T09:51:52.307Z,27.20
2018-07-27T09:54:18.291Z,27.16
2018-07-27T09:56:44.242Z,27.28
2018-07-27T09:59:10.194Z,27.32
2018-07-27T10:01:36.139Z,27.29
2018-07-27T10:04:02.112Z,27.28
2018-07-27T10:06:28.076Z,27.24
2018-07-27T10:08:54.036Z,27.32
2018-07-27T10:11:20.015Z,27.33
2018-07-27T10:13:45.992Z,27.35
2018-07-27T10:16:11.949Z,27.31
2018-07-27T10:18:37.920Z,27.33
2018-07-27T10:21:03.875Z,27.30
2018-07-27T10:23:29.835Z,27.29
2018-07-27T10:25:55.788Z,27.28
2018-07-27T10:28:21.834Z,27.27
2018-07-27T10:30:47.760Z,27.21
2018-07-27T10:33:13.711Z,27.26
2018-07-27T10:35:39.732Z,27.24
2018-07-27T10:38:06.552Z,27.27
2018-07-27T10:40:32.516Z,27.29
2018-07-27T10:42:58.499Z,27.32
2018-07-27T10:45:24.468Z,27.24
2018-07-27T10:47:50.431Z,27.38
2018-07-27T10:50:16.404Z,27.32
2018-07-27T10:52:42.353Z,27.40
2018-07-27T10:55:08.328Z,27.33
2018-07-27T10:57:34.300Z,27.38
2018-07-27T11:00:00.259Z,27.38
2018-07-27T11:02:26.269Z,27.29
2018-07-27T11:04:52.175Z,27.31
2018-07-27T11:07:18.164Z,27.30
2018-07-27T11:09:44.116Z,27.23
2018-07-27T11:12:10.056Z,27.27
2018-07-27T11:14:36.022Z,27.24
2018-07-27T11:17:01.965Z,27.22
2018-07-27T11:19:27.936Z,27.23
2018-07-27T11:21:54.276Z,27.27
2018-07-27T11:24:20.256Z,27.23
2018-07-27T11:26:46.203Z,27.28
2018-07-27T11:29:12.151Z,27.35
2018-07-27T11:31:38.117Z,27.34
2018-07-27T11:34:04.109Z,27.31
2018-07-27T11:36:30.060Z,27.30
2018-07-27T11:38:56.059Z,27.32
2018-07-27T11:41:22.015Z,27.32
2018-07-27T11:43:47.974Z,27.39
2018-07-27T11:46:13.959Z,27.32
2018-07-27T11:48:39.947Z,27.30
2018-07-27T11:51:05.907Z,27.27
2018-07-27T11:53:31.883Z,27.24
2018-07-27T11:55:57.828Z,27.30
2018-07-27T11:58:23.788Z,27.29
2018-07-27T12:00:49.757Z,27.27
2018-07-27T12:03:15.731Z,27.32
2018-07-27T12:05:41.692Z,27.40
2018-07-27T12:08:07.659Z,27.28
2018-07-27T12:10:33.618Z,27.39
2018-07-27T12:12:59.591Z,27.43
2018-07-27T12:15:25.636Z,27.41
2018-07-27T12:17:51.605Z,27.36
2018-07-27T12:20:17.557Z,27.44
2018-07-27T12:22:43.504Z,27.46
2018-07-27T12:25:09.489Z,27.48
2018-07-27T12:27:35.450Z,27.40
2018-07-27T12:30:01.404Z,27.30
2018-07-27T12:32:27.561Z,27.29
2018-07-27T12:34:53.523Z,27.31
2018-07-27T12:37:19.464Z,27.30
2018-07-27T12:39:45.427Z,27.25
2018-07-27T12:42:11.392Z,27.34
2018-07-27T12:44:37.378Z,27.29
2018-07-27T12:47:03.353Z,27.36
2018-07-27T12:49:29.321Z,27.35
2018-07-27T12:51:55.273Z,27.45
2018-07-27T12:54:21.261Z,27.38
2018-07-27T12:56:47.283Z,27.36
2018-07-27T12:59:13.258Z,27.45
2018-07-27T13:01:39.209Z,27.40
2018-07-27T13:04:05.156Z,27.42
2018-07-27T13:06:31.123Z,27.40
2018-07-27T13:08:57.095Z,27.38
2018-07-27T13:11:23.058Z,27.33
2018-07-27T13:13:49.034Z,27.30
2018-07-27T13:16:15.047Z,27.29
2018-07-27T13:18:41.010Z,27.29
2018-07-27T13:21:07.056Z,27.31
2018-07-27T13:23:33.031Z,27.26
2018-07-27T13:28:25.006Z,27.26
2018-07-27T13:30:50.996Z,27.29
2018-07-27T13:33:17.000Z,27.42
2018-07-27T13:38:08.935Z,27.43
2018-07-27T13:40:34.879Z,27.43
2018-07-27T13:43:00.850Z,27.46
2018-07-27T13:45:26.843Z,27.41
2018-07-27T13:47:52.922Z,27.42
2018-07-27T13:50:18.867Z,27.42
2018-07-27T13:52:44.826Z,27.43
2018-07-27T13:55:10.769Z,27.33
2018-07-27T13:57:36.808Z,27.33
2018-07-27T14:00:02.744Z,27.39
2018-07-27T14:02:28.700Z,27.36
2018-07-27T14:04:54.677Z,27.28
2018-07-27T14:07:20.629Z,27.27
2018-07-27T14:09:46.615Z,27.32
2018-07-27T14:12:12.580Z,27.40
2018-07-27T14:14:38.552Z,27.36
2018-07-27T14:17:04.514Z,27.30
2018-07-27T14:19:30.490Z,27.34
2018-07-27T14:21:56.443Z,27.52
2018-07-27T14:24:22.387Z,27.50
2018-07-27T14:26:48.371Z,27.56
2018-07-27T14:29:14.389Z,27.52
2018-07-27T14:31:40.310Z,27.47
2018-07-27T14:34:06.292Z,27.38
2018-07-27T14:36:32.257Z,27.39
2018-07-27T14:38:58.214Z,27.38
2018-07-27T14:41:24.168Z,27.35
2018-07-27T14:43:50.182Z,27.34
2018-07-27T14:46:16.143Z,27.34
2018-07-27T14:48:42.088Z,27.38
2018-07-27T14:51:08.110Z,27.34
2018-07-27T14:53:34.089Z,27.36
2018-07-27T14:56:00.043Z,27.46
2018-07-27T14:58:26.007Z,27.43
2018-07-27T15:00:51.972Z,27.49
2018-07-27T15:03:17.947Z,27.51
2018-07-27T15:05:43.925Z,27.49
2018-07-27T15:08:09.904Z,27.41
2018-07-27T15:10:35.914Z,27.42
2018-07-27T15:13:01.870Z,27.67
2018-07-27T15:15:27.835Z,27.57
2018-07-27T15:17:53.789Z,27.48
2018-07-27T15:20:19.777Z,27.38
2018-07-27T15:22:45.745Z,27.45
2018-07-27T15:25:11.716Z,27.49
2018-07-27T15:27:37.673Z,27.36
2018-07-27T15:30:03.666Z,27.40
2018-07-27T15:32:29.638Z,27.32
2018-07-27T15:34:55.617Z,27.42
2018-07-27T15:37:21.585Z,27.39
2018-07-27T15:39:47.524Z,27.44
2018-07-27T15:42:13.490Z,27.45
2018-07-27T15:44:39.465Z,27.49
2018-07-27T15:47:05.406Z,27.47
2018-07-27T15:49:31.426Z,27.43
2018-07-27T15:51:57.391Z,27.42
2018-07-27T15:54:23.345Z,27.52
2018-07-27T15:56:49.286Z,27.39
2018-07-27T15:59:15.324Z,27.47
2018-07-27T16:01:41.295Z,27.39
2018-07-27T16:04:07.264Z,27.36
2018-07-27T16:06:33.265Z,27.41
2018-07-27T16:08:59.231Z,27.38
2018-07-27T16:11:25.192Z,27.40
2018-07-27T16:13:51.188Z,27.45
2018-07-27T16:16:17.152Z,27.43
2018-07-27T16:18:43.135Z,27.38
2018-07-27T16:21:09.112Z,27.43
2018-07-27T16:23:35.060Z,27.39
2018-07-27T16:26:01.039Z,27.42
2018-07-27T16:28:27.085Z,27.44
2018-07-27T16:30:53.055Z,27.51
2018-07-27T16:33:19.008Z,27.52
2018-07-27T16:35:44.982Z,27.52
2018-07-27T16:38:10.935Z,27.43
2018-07-27T16:40:36.922Z,27.49
2018-07-27T16:43:02.952Z,27.47
2018-07-27T16:45:28.897Z,27.41
2018-07-27T16:47:54.846Z,27.36
2018-07-27T16:50:20.877Z,27.40
2018-07-27T16:52:46.877Z,27.51
2018-07-27T16:55:12.807Z,27.39
2018-07-27T16:57:38.763Z,27.41
2018-07-27T17:00:04.727Z,27.38
2018-07-27T17:02:30.680Z,27.41
2018-07-27T17:04:56.687Z,27.44
2018-07-27T17:07:22.637Z,27.55
2018-07-27T17:09:48.596Z,27.48
2018-07-27T17:12:14.639Z,27.60
2018-07-27T17:14:40.530Z,27.55
2018-07-27T17:17:06.516Z,27.49
2018-07-27T17:19:32.480Z,27.45
2018-07-27T17:21:58.453Z,27.48
2018-07-27T17:24:24.407Z,27.46
2018-07-27T17:26:50.380Z,27.47
2018-07-27T17:29:16.323Z,27.45
2018-07-27T17:31:42.340Z,27.45
2018-07-27T17:34:08.304Z,27.43
2018-07-27T17:36:34.251Z,27.41
2018-07-27T17:39:00.214Z,27.48
2018-07-27T17:41:26.179Z,27.44
2018-07-27T17:43:52.152Z,27.47
2018-07-27T17:46:18.118Z,27.47
2018-07-27T17:48:44.104Z,27.47
2018-07-27T17:51:10.061Z,27.51
2018-07-27T17:53:36.075Z,27.55
2018-07-27T17:56:02.049Z,27.50
2018-07-27T17:58:28.015Z,27.53
2018-07-27T18:00:53.961Z,27.50
2018-07-27T18:03:19.935Z,27.55
2018-07-27T18:05:45.887Z,27.58
2018-07-27T18:08:11.853Z,27.61
2018-07-27T18:10:37.805Z,27.52
2018-07-27T18:13:03.805Z,27.45
2018-07-27T18:15:29.756Z,27.46
2018-07-27T18:17:55.710Z,27.49
2018-07-27T18:20:21.684Z,27.45
2018-07-27T18:22:47.661Z,27.36
2018-07-27T18:25:13.690Z,27.39
2018-07-27T18:27:39.580Z,27.44
2018-07-27T18:30:05.595Z,27.55
2018-07-27T18:32:31.620Z,27.46
2018-07-27T18:34:57.644Z,27.51
2018-07-27T18:37:23.588Z,27.54
2018-07-27T18:39:49.668Z,27.50
2018-07-27T18:42:15.724Z,27.53
2018-07-27T18:44:41.706Z,27.58
2018-07-27T18:47:07.666Z,27.56
2018-07-27T18:49:33.603Z,27.56
2018-07-27T18:51:59.587Z,27.47
2018-07-27T18:54:25.573Z,27.40
2018-07-27T18:56:51.536Z,27.42
2018-07-27T18:59:17.511Z,27.44
2018-07-27T19:01:43.594Z,27.47
2018-07-27T19:04:09.518Z,27.40
2018-07-27T19:06:35.492Z,27.45
2018-07-27T19:09:01.454Z,27.44
2018-07-27T19:11:27.437Z,27.40
2018-07-27T19:13:53.394Z,27.47
2018-07-27T19:16:19.354Z,27.43
2018-07-27T19:18:45.321Z,27.49
2018-07-27T19:21:11.311Z,27.46
2018-07-27T19:23:37.301Z,27.46
2018-07-27T19:26:03.249Z,27.51
2018-07-27T19:28:29.207Z,27.47
2018-07-27T19:30:55.194Z,27.48
2018-07-27T19:33:21.216Z,27.45
2018-07-27T19:38:19.552Z,27.50
2018-07-27T19:40:45.548Z,27.46
2018-07-27T19:43:11.516Z,27.56
2018-07-27T19:45:37.479Z,27.49
2018-07-27T19:48:03.461Z,27.45
2018-07-27T19:50:29.411Z,27.43
2018-07-27T19:52:55.375Z,27.46
2018-07-27T19:55:21.632Z,27.49
2018-07-27T19:57:47.602Z,27.51
2018-07-27T20:00:13.587Z,27.51
2018-07-27T20:02:39.553Z,27.50
2018-07-27T20:05:05.520Z,27.50
2018-07-27T20:07:31.701Z,27.47
2018-07-27T20:09:57.775Z,27.53
2018-07-27T20:12:23.760Z,27.47
2018-07-27T20:14:49.763Z,27.44
2018-07-27T20:17:15.752Z,27.44
2018-07-27T20:19:41.738Z,27.44
2018-07-27T20:22:07.724Z,27.40
2018-07-27T20:24:33.694Z,27.41
2018-07-27T20:26:59.690Z,27.37
2018-07-27T20:29:25.693Z,27.38
2018-07-27T20:31:51.655Z,27.41
2018-07-27T20:34:17.664Z,27.43
2018-07-27T20:36:43.667Z,27.46
2018-07-27T20:39:09.644Z,27.38
2018-07-27T20:41:35.723Z,27.47
2018-07-27T20:44:01.802Z,27.54
2018-07-27T20:46:27.738Z,27.48
2018-07-27T20:48:53.723Z,27.42
2018-07-27T20:51:19.700Z,27.51
2018-07-27T20:53:45.696Z,27.44
2018-07-27T20:56:11.692Z,27.46
2018-07-27T20:58:37.657Z,27.42
2018-07-27T21:01:03.651Z,27.38
2018-07-27T21:03:29.626Z,27.38
2018-07-27T21:05:55.646Z,27.39
2018-07-27T21:08:21.625Z,27.30
2018-07-27T21:10:47.624Z,27.29
2018-07-27T21:13:13.702Z,27.34
2018-07-27T21:15:39.708Z,27.36
2018-07-27T21:18:05.679Z,27.34
2018-07-27T21:20:31.699Z,27.40
2018-07-27T21:22:57.688Z,27.39
2018-07-27T21:25:23.650Z,27.47
2018-07-27T21:27:49.611Z,27.49
2018-07-27T21:30:15.604Z,27.48
2018-07-27T21:32:41.657Z,27.45
2018-07-27T21:35:07.630Z,27.56
2018-07-27T21:37:33.652Z,27.46
2018-07-27T21:39:59.748Z,27.38
2018-07-27T21:42:25.728Z,27.30
2018-07-27T21:44:51.691Z,27.34
2018-07-27T21:47:17.661Z,27.38
2018-07-27T21:49:43.644Z,27.35
2018-07-27T21:52:09.626Z,27.40
2018-07-27T21:54:35.608Z,27.36
2018-07-27T21:57:01.577Z,27.38
2018-07-27T21:59:27.588Z,27.42
2018-07-27T22:01:53.564Z,27.39
2018-07-27T22:04:19.750Z,27.43
2018-07-27T22:06:46.035Z,27.41
2018-07-27T22:09:12.004Z,27.32
2018-07-27T22:11:38.002Z,27.44
2018-07-27T22:14:03.957Z,27.40
2018-07-27T22:16:29.947Z,27.58
2018-07-27T22:18:55.945Z,27.46
2018-07-27T22:21:21.952Z,27.39
2018-07-27T22:23:48.014Z,27.56
2018-07-27T22:26:13.951Z,27.40
2018-07-27T22:28:39.989Z,27.33
2018-07-27T22:31:05.981Z,27.38
2018-07-27T22:33:32.037Z,27.41
2018-07-27T22:35:58.012Z,27.39
2018-07-27T22:38:23.981Z,27.38
2018-07-27T22:40:50.123Z,27.33
2018-07-27T22:43:15.953Z,27.67
2018-07-27T22:45:41.931Z,27.45
2018-07-27T22:48:07.910Z,27.52
2018-07-27T22:50:33.980Z,27.60
2018-07-27T22:53:00.001Z,27.66
2018-07-27T22:55:26.168Z,27.43
2018-07-27T22:57:52.147Z,27.55
2018-07-27T23:00:18.122Z,27.72
2018-07-27T23:02:44.125Z,27.65
2018-07-27T23:05:10.112Z,27.63
2018-07-27T23:07:36.123Z,27.41
2018-07-27T23:10:02.104Z,27.42
2018-07-27T23:12:28.091Z,27.48
2018-07-27T23:14:54.066Z,27.40
2018-07-27T23:17:20.052Z,27.39
2018-07-27T23:19:46.023Z,27.30
2018-07-27T23:22:12.042Z,27.35
2018-07-27T23:24:38.076Z,27.42
2018-07-27T23:27:04.064Z,27.34
2018-07-27T23:29:30.060Z,27.38
2018-07-27T23:31:56.028Z,27.49
2018-07-27T23:34:22.086Z,27.45
2018-07-27T23:36:48.076Z,27.38
2018-07-27T23:39:14.048Z,27.41
2018-07-27T23:41:40.045Z,27.44
2018-07-27T23:44:06.036Z,27.38
2018-07-27T23:46:32.126Z,27.44
2018-07-27T23:48:58.092Z,27.38
2018-07-27T23:51:24.076Z,27.30
2018-07-27T23:53:50.057Z,27.25
2018-07-27T23:56:16.053Z,27.31
2018-07-27T23:58:42.036Z,27.32
